ENHE

Heidrun Airport

Norway
METAR ENHE 211320Z VRB02KT CAVOK 17/11 Q1009 W///S3
Observed Flight Rules
Jul-21 @ 13:20 UTC (34 minutes ago) Visual Flight Rules
Wind Visibility Clouds
Variable at 2 knots 10,000+ meters
  • Clear skies
Temperatures Readings
Current 17°C / 63°F
Dewpoint 11°C / 52°F
Humidity 68%
Altimeter 29.79" Hg
Pressure 1009 hPa
Elevation 1
METAR ENHE 211320Z VRB02KT CAVOK 17/11 Q1009 W///S3
Observed Flight Rules
Jul-21 @ 13:20 UTC
(34 minutes ago)
VFR
Wind Visibility
Variable at 2 knots 10,000+ meters
Clouds
  • Clear skies
Temperature Dewpoint
17°C / 63°F 11°C / 52°F
Humidity Altimeter Pressure
68% 29.79" Hg 1009 hPa